sensor_id;sensor_type;location;lat;lon;timestamp;temperature;humidity
12704;DHT22;6416;52.182;7.650;2022-08-19T00:01:42;22.00;65.00
12704;DHT22;6416;52.182;7.650;2022-08-19T00:04:09;21.90;65.10
12704;DHT22;6416;52.182;7.650;2022-08-19T00:06:37;21.90;65.00
12704;DHT22;6416;52.182;7.650;2022-08-19T00:09:05;21.90;65.20
12704;DHT22;6416;52.182;7.650;2022-08-19T00:11:31;21.90;65.40
12704;DHT22;6416;52.182;7.650;2022-08-19T00:13:57;21.80;65.30
12704;DHT22;6416;52.182;7.650;2022-08-19T00:16:24;21.80;65.30
12704;DHT22;6416;52.182;7.650;2022-08-19T00:18:50;21.80;65.40
12704;DHT22;6416;52.182;7.650;2022-08-19T00:21:15;21.80;65.40
12704;DHT22;6416;52.182;7.650;2022-08-19T00:23:42;21.80;65.40
12704;DHT22;6416;52.182;7.650;2022-08-19T00:26:08;21.70;65.40
12704;DHT22;6416;52.182;7.650;2022-08-19T00:28:34;21.70;65.50
12704;DHT22;6416;52.182;7.650;2022-08-19T00:30:59;21.60;65.50
12704;DHT22;6416;52.182;7.650;2022-08-19T00:33:25;21.60;65.50
12704;DHT22;6416;52.182;7.650;2022-08-19T00:35:51;21.60;65.70
12704;DHT22;6416;52.182;7.650;2022-08-19T00:38:17;21.60;65.80
12704;DHT22;6416;52.182;7.650;2022-08-19T00:40:43;21.60;65.90
12704;DHT22;6416;52.182;7.650;2022-08-19T00:43:10;21.50;66.00
12704;DHT22;6416;52.182;7.650;2022-08-19T00:45:36;21.50;66.00
12704;DHT22;6416;52.182;7.650;2022-08-19T00:48:03;21.50;66.10
12704;DHT22;6416;52.182;7.650;2022-08-19T00:50:28;21.50;66.10
12704;DHT22;6416;52.182;7.650;2022-08-19T00:52:54;21.40;66.10
12704;DHT22;6416;52.182;7.650;2022-08-19T00:55:22;21.40;66.10
12704;DHT22;6416;52.182;7.650;2022-08-19T00:58:04;21.40;66.30
12704;DHT22;6416;52.182;7.650;2022-08-19T01:00:31;21.40;67.10
12704;DHT22;6416;52.182;7.650;2022-08-19T01:02:57;21.30;66.90
12704;DHT22;6416;52.182;7.650;2022-08-19T01:05:25;21.30;66.30
12704;DHT22;6416;52.182;7.650;2022-08-19T01:07:51;21.20;66.30
12704;DHT22;6416;52.182;7.650;2022-08-19T01:10:21;21.30;66.40
12704;DHT22;6416;52.182;7.650;2022-08-19T01:12:49;21.20;66.60
12704;DHT22;6416;52.182;7.650;2022-08-19T01:15:19;21.20;66.50
12704;DHT22;6416;52.182;7.650;2022-08-19T01:17:45;21.20;66.70
12704;DHT22;6416;52.182;7.650;2022-08-19T01:20:18;21.10;66.50
12704;DHT22;6416;52.182;7.650;2022-08-19T01:25:15;21.10;67.00
12704;DHT22;6416;52.182;7.650;2022-08-19T01:27:43;21.10;66.70
12704;DHT22;6416;52.182;7.650;2022-08-19T01:30:13;21.00;66.60
12704;DHT22;6416;52.182;7.650;2022-08-19T01:32:39;21.00;66.90
12704;DHT22;6416;52.182;7.650;2022-08-19T01:35:05;21.00;66.70
12704;DHT22;6416;52.182;7.650;2022-08-19T01:37:40;20.90;66.70
12704;DHT22;6416;52.182;7.650;2022-08-19T01:40:06;20.90;66.80
12704;DHT22;6416;52.182;7.650;2022-08-19T01:42:32;20.90;67.60
12704;DHT22;6416;52.182;7.650;2022-08-19T01:44:58;20.90;67.00
12704;DHT22;6416;52.182;7.650;2022-08-19T01:47:23;20.80;67.00
12704;DHT22;6416;52.182;7.650;2022-08-19T01:49:49;20.80;67.20
12704;DHT22;6416;52.182;7.650;2022-08-19T01:52:14;20.80;67.30
12704;DHT22;6416;52.182;7.650;2022-08-19T01:54:40;20.70;67.30
12704;DHT22;6416;52.182;7.650;2022-08-19T01:57:09;20.70;67.30
12704;DHT22;6416;52.182;7.650;2022-08-19T01:59:36;20.70;67.70
12704;DHT22;6416;52.182;7.650;2022-08-19T02:02:02;20.70;67.50
12704;DHT22;6416;52.182;7.650;2022-08-19T02:04:28;20.60;67.50
12704;DHT22;6416;52.182;7.650;2022-08-19T02:06:53;20.60;67.50
12704;DHT22;6416;52.182;7.650;2022-08-19T02:09:19;20.60;67.60
12704;DHT22;6416;52.182;7.650;2022-08-19T02:11:44;20.60;67.70
12704;DHT22;6416;52.182;7.650;2022-08-19T02:14:10;20.50;67.70
12704;DHT22;6416;52.182;7.650;2022-08-19T02:16:36;20.50;67.80
12704;DHT22;6416;52.182;7.650;2022-08-19T02:19:02;20.50;67.80
12704;DHT22;6416;52.182;7.650;2022-08-19T02:21:29;20.50;67.90
12704;DHT22;6416;52.182;7.650;2022-08-19T02:23:55;20.50;68.10
12704;DHT22;6416;52.182;7.650;2022-08-19T02:26:21;20.50;68.10
12704;DHT22;6416;52.182;7.650;2022-08-19T02:28:47;20.40;68.10
12704;DHT22;6416;52.182;7.650;2022-08-19T02:31:20;20.40;68.20
12704;DHT22;6416;52.182;7.650;2022-08-19T02:33:47;20.40;69.30
12704;DHT22;6416;52.182;7.650;2022-08-19T02:36:14;20.40;68.20
12704;DHT22;6416;52.182;7.650;2022-08-19T02:38:40;20.30;68.20
12704;DHT22;6416;52.182;7.650;2022-08-19T02:41:24;20.30;68.30
12704;DHT22;6416;52.182;7.650;2022-08-19T02:43:49;20.30;69.10
12704;DHT22;6416;52.182;7.650;2022-08-19T02:46:28;20.30;68.20
12704;DHT22;6416;52.182;7.650;2022-08-19T02:48:57;20.30;69.00
12704;DHT22;6416;52.182;7.650;2022-08-19T02:51:32;20.30;68.40
12704;DHT22;6416;52.182;7.650;2022-08-19T02:53:58;20.30;68.50
12704;DHT22;6416;52.182;7.650;2022-08-19T02:56:23;20.20;68.10
12704;DHT22;6416;52.182;7.650;2022-08-19T02:58:49;20.20;68.20
12704;DHT22;6416;52.182;7.650;2022-08-19T03:01:27;20.20;68.30
12704;DHT22;6416;52.182;7.650;2022-08-19T03:03:54;20.20;69.00
12704;DHT22;6416;52.182;7.650;2022-08-19T03:06:20;20.20;68.30
12704;DHT22;6416;52.182;7.650;2022-08-19T03:08:46;20.20;68.40
12704;DHT22;6416;52.182;7.650;2022-08-19T03:11:22;20.10;68.40
12704;DHT22;6416;52.182;7.650;2022-08-19T03:13:48;20.10;69.00
12704;DHT22;6416;52.182;7.650;2022-08-19T03:16:13;20.10;68.50
12704;DHT22;6416;52.182;7.650;2022-08-19T03:18:39;20.10;68.70
12704;DHT22;6416;52.182;7.650;2022-08-19T03:21:05;20.00;68.60
12704;DHT22;6416;52.182;7.650;2022-08-19T03:23:31;20.00;68.60
12704;DHT22;6416;52.182;7.650;2022-08-19T03:25:56;20.00;68.70
12704;DHT22;6416;52.182;7.650;2022-08-19T03:28:22;20.00;68.70
12704;DHT22;6416;52.182;7.650;2022-08-19T03:30:59;20.00;68.80
12704;DHT22;6416;52.182;7.650;2022-08-19T03:33:25;20.00;69.40
12704;DHT22;6416;52.182;7.650;2022-08-19T03:36:06;20.00;68.80
12704;DHT22;6416;52.182;7.650;2022-08-19T03:38:32;19.90;69.50
12704;DHT22;6416;52.182;7.650;2022-08-19T03:40:58;19.90;68.80
12704;DHT22;6416;52.182;7.650;2022-08-19T03:43:27;19.90;68.90
12704;DHT22;6416;52.182;7.650;2022-08-19T03:46:07;19.90;69.10
12704;DHT22;6416;52.182;7.650;2022-08-19T03:48:34;19.80;70.10
12704;DHT22;6416;52.182;7.650;2022-08-19T03:51:00;19.80;69.20
12704;DHT22;6416;52.182;7.650;2022-08-19T03:53:27;19.80;69.40
12704;DHT22;6416;52.182;7.650;2022-08-19T03:55:53;19.70;69.60
12704;DHT22;6416;52.182;7.650;2022-08-19T03:58:20;19.70;69.80
12704;DHT22;6416;52.182;7.650;2022-08-19T04:00:46;19.70;69.80
12704;DHT22;6416;52.182;7.650;2022-08-19T04:03:11;19.70;70.00
12704;DHT22;6416;52.182;7.650;2022-08-19T04:05:37;19.70;70.30
12704;DHT22;6416;52.182;7.650;2022-08-19T04:08:03;19.70;70.40
12704;DHT22;6416;52.182;7.650;2022-08-19T04:10:28;19.70;70.50
12704;DHT22;6416;52.182;7.650;2022-08-19T04:12:54;19.70;70.60
12704;DHT22;6416;52.182;7.650;2022-08-19T04:15:19;19.70;70.60
12704;DHT22;6416;52.182;7.650;2022-08-19T04:17:45;19.70;70.60
12704;DHT22;6416;52.182;7.650;2022-08-19T04:20:10;19.70;70.80
12704;DHT22;6416;52.182;7.650;2022-08-19T04:22:36;19.70;70.90
12704;DHT22;6416;52.182;7.650;2022-08-19T04:25:02;19.70;70.80
12704;DHT22;6416;52.182;7.650;2022-08-19T04:27:27;19.70;70.70
12704;DHT22;6416;52.182;7.650;2022-08-19T04:29:53;19.70;70.50
12704;DHT22;6416;52.182;7.650;2022-08-19T04:32:18;19.60;70.30
12704;DHT22;6416;52.182;7.650;2022-08-19T04:34:44;19.60;70.30
12704;DHT22;6416;52.182;7.650;2022-08-19T04:37:09;19.60;70.40
12704;DHT22;6416;52.182;7.650;2022-08-19T04:39:35;19.50;71.20
12704;DHT22;6416;52.182;7.650;2022-08-19T04:42:00;19.60;70.70
12704;DHT22;6416;52.182;7.650;2022-08-19T04:44:26;19.50;70.60
12704;DHT22;6416;52.182;7.650;2022-08-19T04:46:52;19.60;70.90
12704;DHT22;6416;52.182;7.650;2022-08-19T04:49:20;19.60;71.00
12704;DHT22;6416;52.182;7.650;2022-08-19T04:51:46;19.60;71.90
12704;DHT22;6416;52.182;7.650;2022-08-19T04:54:13;19.60;71.20
12704;DHT22;6416;52.182;7.650;2022-08-19T04:56:40;19.60;71.20
12704;DHT22;6416;52.182;7.650;2022-08-19T04:59:05;19.60;71.30
12704;DHT22;6416;52.182;7.650;2022-08-19T05:01:32;19.50;71.30
12704;DHT22;6416;52.182;7.650;2022-08-19T05:04:00;19.50;71.40
12704;DHT22;6416;52.182;7.650;2022-08-19T05:06:26;19.50;71.50
12704;DHT22;6416;52.182;7.650;2022-08-19T05:08:52;19.50;71.50
12704;DHT22;6416;52.182;7.650;2022-08-19T05:11:21;19.60;71.70
12704;DHT22;6416;52.182;7.650;2022-08-19T05:13:48;19.60;71.80
12704;DHT22;6416;52.182;7.650;2022-08-19T05:16:15;19.70;72.00
12704;DHT22;6416;52.182;7.650;2022-08-19T05:18:41;19.70;72.20
12704;DHT22;6416;52.182;7.650;2022-08-19T05:21:16;19.80;72.50
12704;DHT22;6416;52.182;7.650;2022-08-19T05:23:42;20.00;73.10
12704;DHT22;6416;52.182;7.650;2022-08-19T05:26:08;20.10;72.80
12704;DHT22;6416;52.182;7.650;2022-08-19T05:28:33;20.20;72.70
12704;DHT22;6416;52.182;7.650;2022-08-19T05:30:59;20.30;72.80
12704;DHT22;6416;52.182;7.650;2022-08-19T05:33:24;20.50;72.80
12704;DHT22;6416;52.182;7.650;2022-08-19T05:35:50;20.60;73.00
12704;DHT22;6416;52.182;7.650;2022-08-19T05:38:18;20.80;73.00
12704;DHT22;6416;52.182;7.650;2022-08-19T05:40:44;21.00;72.90
12704;DHT22;6416;52.182;7.650;2022-08-19T05:43:09;21.20;72.70
12704;DHT22;6416;52.182;7.650;2022-08-19T05:45:39;21.40;72.50
12704;DHT22;6416;52.182;7.650;2022-08-19T05:48:05;21.70;72.40
12704;DHT22;6416;52.182;7.650;2022-08-19T05:50:30;21.90;72.20
12704;DHT22;6416;52.182;7.650;2022-08-19T05:52:56;22.10;72.00
12704;DHT22;6416;52.182;7.650;2022-08-19T05:55:21;22.30;71.80
12704;DHT22;6416;52.182;7.650;2022-08-19T05:57:47;22.50;71.70
12704;DHT22;6416;52.182;7.650;2022-08-19T06:00:13;22.70;71.60
12704;DHT22;6416;52.182;7.650;2022-08-19T06:02:38;22.90;71.50
12704;DHT22;6416;52.182;7.650;2022-08-19T06:05:06;23.10;71.30
12704;DHT22;6416;52.182;7.650;2022-08-19T06:07:32;23.30;71.00
12704;DHT22;6416;52.182;7.650;2022-08-19T06:09:58;23.60;71.00
12704;DHT22;6416;52.182;7.650;2022-08-19T06:12:24;23.80;71.50
12704;DHT22;6416;52.182;7.650;2022-08-19T06:14:49;24.00;70.50
12704;DHT22;6416;52.182;7.650;2022-08-19T06:17:15;24.30;70.20
12704;DHT22;6416;52.182;7.650;2022-08-19T06:19:40;24.50;69.80
12704;DHT22;6416;52.182;7.650;2022-08-19T06:22:06;24.70;69.40
12704;DHT22;6416;52.182;7.650;2022-08-19T06:24:31;24.80;68.90
12704;DHT22;6416;52.182;7.650;2022-08-19T06:26:58;25.10;68.80
12704;DHT22;6416;52.182;7.650;2022-08-19T06:29:26;25.20;68.40
12704;DHT22;6416;52.182;7.650;2022-08-19T06:31:54;25.40;68.80
12704;DHT22;6416;52.182;7.650;2022-08-19T06:34:20;25.60;67.80
12704;DHT22;6416;52.182;7.650;2022-08-19T06:36:49;25.90;67.60
12704;DHT22;6416;52.182;7.650;2022-08-19T06:39:17;26.10;66.90
12704;DHT22;6416;52.182;7.650;2022-08-19T06:41:46;26.30;67.00
12704;DHT22;6416;52.182;7.650;2022-08-19T06:44:13;26.60;66.60
12704;DHT22;6416;52.182;7.650;2022-08-19T06:46:40;26.80;66.60
12704;DHT22;6416;52.182;7.650;2022-08-19T06:49:06;27.10;66.60
12704;DHT22;6416;52.182;7.650;2022-08-19T06:51:31;27.30;66.90
12704;DHT22;6416;52.182;7.650;2022-08-19T06:53:57;27.60;66.80
12704;DHT22;6416;52.182;7.650;2022-08-19T06:56:26;27.90;66.60
12704;DHT22;6416;52.182;7.650;2022-08-19T06:58:51;28.30;66.30
12704;DHT22;6416;52.182;7.650;2022-08-19T07:01:17;28.60;66.20
12704;DHT22;6416;52.182;7.650;2022-08-19T07:03:43;29.00;66.00
12704;DHT22;6416;52.182;7.650;2022-08-19T07:06:12;29.30;65.20
12704;DHT22;6416;52.182;7.650;2022-08-19T07:08:38;29.70;64.10
12704;DHT22;6416;52.182;7.650;2022-08-19T07:11:08;30.00;63.70
12704;DHT22;6416;52.182;7.650;2022-08-19T07:13:35;30.30;62.70
12704;DHT22;6416;52.182;7.650;2022-08-19T07:16:04;30.60;62.50
12704;DHT22;6416;52.182;7.650;2022-08-19T07:18:29;30.80;61.20
12704;DHT22;6416;52.182;7.650;2022-08-19T07:23:29;31.30;59.20
12704;DHT22;6416;52.182;7.650;2022-08-19T07:25:55;31.50;60.10
12704;DHT22;6416;52.182;7.650;2022-08-19T07:28:20;31.70;59.80
12704;DHT22;6416;52.182;7.650;2022-08-19T07:30:46;32.00;58.90
12704;DHT22;6416;52.182;7.650;2022-08-19T07:33:11;32.20;58.40
12704;DHT22;6416;52.182;7.650;2022-08-19T07:35:37;32.30;58.20
12704;DHT22;6416;52.182;7.650;2022-08-19T07:38:02;32.60;58.40
12704;DHT22;6416;52.182;7.650;2022-08-19T07:40:28;32.80;57.70
12704;DHT22;6416;52.182;7.650;2022-08-19T07:42:54;33.00;57.00
12704;DHT22;6416;52.182;7.650;2022-08-19T07:45:19;33.20;56.70
12704;DHT22;6416;52.182;7.650;2022-08-19T07:47:45;33.40;56.60
12704;DHT22;6416;52.182;7.650;2022-08-19T07:50:11;33.60;56.60
12704;DHT22;6416;52.182;7.650;2022-08-19T07:52:37;33.90;56.10
12704;DHT22;6416;52.182;7.650;2022-08-19T07:55:10;34.20;55.20
12704;DHT22;6416;52.182;7.650;2022-08-19T07:57:35;34.40;54.60
12704;DHT22;6416;52.182;7.650;2022-08-19T08:00:02;34.60;54.10
12704;DHT22;6416;52.182;7.650;2022-08-19T08:02:28;34.80;53.70
12704;DHT22;6416;52.182;7.650;2022-08-19T08:04:53;34.90;53.10
12704;DHT22;6416;52.182;7.650;2022-08-19T08:07:19;35.00;52.60
12704;DHT22;6416;52.182;7.650;2022-08-19T08:09:45;35.10;52.20
12704;DHT22;6416;52.182;7.650;2022-08-19T08:12:15;35.20;52.50
12704;DHT22;6416;52.182;7.650;2022-08-19T08:14:47;35.20;51.10
12704;DHT22;6416;52.182;7.650;2022-08-19T08:17:17;35.40;50.50
12704;DHT22;6416;52.182;7.650;2022-08-19T08:19:43;35.50;50.80
12704;DHT22;6416;52.182;7.650;2022-08-19T08:22:11;35.50;50.40
12704;DHT22;6416;52.182;7.650;2022-08-19T08:24:37;35.50;50.20
12704;DHT22;6416;52.182;7.650;2022-08-19T08:27:02;35.60;50.20
12704;DHT22;6416;52.182;7.650;2022-08-19T08:29:29;35.60;49.90
12704;DHT22;6416;52.182;7.650;2022-08-19T08:31:55;35.70;50.20
12704;DHT22;6416;52.182;7.650;2022-08-19T08:34:21;35.90;50.20
12704;DHT22;6416;52.182;7.650;2022-08-19T08:36:47;36.20;50.10
12704;DHT22;6416;52.182;7.650;2022-08-19T08:39:15;36.50;49.50
12704;DHT22;6416;52.182;7.650;2022-08-19T08:42:05;36.70;48.60
12704;DHT22;6416;52.182;7.650;2022-08-19T08:44:53;37.10;46.70
12704;DHT22;6416;52.182;7.650;2022-08-19T08:47:22;37.40;47.70
12704;DHT22;6416;52.182;7.650;2022-08-19T08:49:52;37.80;48.00
12704;DHT22;6416;52.182;7.650;2022-08-19T08:54:53;38.80;46.20
12704;DHT22;6416;52.182;7.650;2022-08-19T08:57:44;39.30;47.00
12704;DHT22;6416;52.182;7.650;2022-08-19T09:02:48;40.30;44.50
12704;DHT22;6416;52.182;7.650;2022-08-19T09:05:14;40.60;44.80
12704;DHT22;6416;52.182;7.650;2022-08-19T09:10:26;40.90;42.60
12704;DHT22;6416;52.182;7.650;2022-08-19T09:15:56;40.60;40.50
12704;DHT22;6416;52.182;7.650;2022-08-19T09:18:21;40.20;39.30
12704;DHT22;6416;52.182;7.650;2022-08-19T09:20:47;39.80;39.80
12704;DHT22;6416;52.182;7.650;2022-08-19T09:23:12;39.50;39.80
12704;DHT22;6416;52.182;7.650;2022-08-19T09:25:38;39.10;40.20
12704;DHT22;6416;52.182;7.650;2022-08-19T09:28:03;38.90;40.70
12704;DHT22;6416;52.182;7.650;2022-08-19T09:30:32;38.80;41.10
12704;DHT22;6416;52.182;7.650;2022-08-19T09:32:58;38.80;41.40
12704;DHT22;6416;52.182;7.650;2022-08-19T09:35:26;38.90;41.70
12704;DHT22;6416;52.182;7.650;2022-08-19T09:37:52;39.00;41.30
12704;DHT22;6416;52.182;7.650;2022-08-19T09:40:19;39.10;41.10
12704;DHT22;6416;52.182;7.650;2022-08-19T09:42:45;39.10;40.50
12704;DHT22;6416;52.182;7.650;2022-08-19T09:45:11;39.00;40.00
12704;DHT22;6416;52.182;7.650;2022-08-19T09:47:36;39.00;40.00
12704;DHT22;6416;52.182;7.650;2022-08-19T09:50:02;39.00;40.10
12704;DHT22;6416;52.182;7.650;2022-08-19T09:52:28;39.00;40.40
12704;DHT22;6416;52.182;7.650;2022-08-19T09:54:53;39.00;40.30
12704;DHT22;6416;52.182;7.650;2022-08-19T09:57:18;39.10;40.30
12704;DHT22;6416;52.182;7.650;2022-08-19T09:59:44;39.20;40.00
12704;DHT22;6416;52.182;7.650;2022-08-19T10:02:10;39.30;39.80
12704;DHT22;6416;52.182;7.650;2022-08-19T10:04:35;39.40;39.30
12704;DHT22;6416;52.182;7.650;2022-08-19T10:07:00;39.50;39.30
12704;DHT22;6416;52.182;7.650;2022-08-19T10:09:26;39.60;39.40
12704;DHT22;6416;52.182;7.650;2022-08-19T10:11:51;39.70;39.40
12704;DHT22;6416;52.182;7.650;2022-08-19T10:14:17;39.70;39.30
12704;DHT22;6416;52.182;7.650;2022-08-19T10:16:43;39.60;37.70
12704;DHT22;6416;52.182;7.650;2022-08-19T10:19:09;39.40;37.20
12704;DHT22;6416;52.182;7.650;2022-08-19T10:21:35;39.10;37.10
12704;DHT22;6416;52.182;7.650;2022-08-19T10:24:03;38.90;37.40
12704;DHT22;6416;52.182;7.650;2022-08-19T10:26:31;38.90;38.10
12704;DHT22;6416;52.182;7.650;2022-08-19T10:28:58;39.00;38.20
12704;DHT22;6416;52.182;7.650;2022-08-19T10:31:29;39.20;38.40
12704;DHT22;6416;52.182;7.650;2022-08-19T10:33:55;39.50;38.60
12704;DHT22;6416;52.182;7.650;2022-08-19T10:36:24;39.90;39.00
12704;DHT22;6416;52.182;7.650;2022-08-19T10:38:53;40.30;38.50
12704;DHT22;6416;52.182;7.650;2022-08-19T10:41:23;40.70;37.40
12704;DHT22;6416;52.182;7.650;2022-08-19T10:43:58;41.10;37.70
12704;DHT22;6416;52.182;7.650;2022-08-19T10:46:26;41.40;36.20
12704;DHT22;6416;52.182;7.650;2022-08-19T10:48:53;41.60;36.10
12704;DHT22;6416;52.182;7.650;2022-08-19T10:51:19;41.70;34.80
12704;DHT22;6416;52.182;7.650;2022-08-19T10:53:45;41.60;34.30
12704;DHT22;6416;52.182;7.650;2022-08-19T10:56:11;41.40;33.80
12704;DHT22;6416;52.182;7.650;2022-08-19T10:58:36;41.20;33.70
12704;DHT22;6416;52.182;7.650;2022-08-19T11:01:02;40.90;34.10
12704;DHT22;6416;52.182;7.650;2022-08-19T11:03:27;40.80;34.60
12704;DHT22;6416;52.182;7.650;2022-08-19T11:06:04;40.80;35.10
12704;DHT22;6416;52.182;7.650;2022-08-19T11:08:30;40.90;33.90
12704;DHT22;6416;52.182;7.650;2022-08-19T11:10:59;41.00;34.70
12704;DHT22;6416;52.182;7.650;2022-08-19T11:13:25;41.10;33.80
12704;DHT22;6416;52.182;7.650;2022-08-19T11:16:02;41.10;33.80
12704;DHT22;6416;52.182;7.650;2022-08-19T11:18:27;40.90;32.20
12704;DHT22;6416;52.182;7.650;2022-08-19T11:20:53;40.70;33.00
12704;DHT22;6416;52.182;7.650;2022-08-19T11:23:19;40.50;32.80
12704;DHT22;6416;52.182;7.650;2022-08-19T11:25:45;40.30;33.00
12704;DHT22;6416;52.182;7.650;2022-08-19T11:28:11;39.90;32.80
12704;DHT22;6416;52.182;7.650;2022-08-19T11:30:38;39.60;32.60
12704;DHT22;6416;52.182;7.650;2022-08-19T11:33:04;39.40;32.50
12704;DHT22;6416;52.182;7.650;2022-08-19T11:35:29;39.10;32.90
12704;DHT22;6416;52.182;7.650;2022-08-19T11:37:55;38.90;33.10
12704;DHT22;6416;52.182;7.650;2022-08-19T11:40:20;38.80;34.00
12704;DHT22;6416;52.182;7.650;2022-08-19T11:42:46;38.90;34.20
12704;DHT22;6416;52.182;7.650;2022-08-19T11:45:11;39.10;35.40
12704;DHT22;6416;52.182;7.650;2022-08-19T11:47:37;39.50;35.50
12704;DHT22;6416;52.182;7.650;2022-08-19T11:50:03;39.90;35.80
12704;DHT22;6416;52.182;7.650;2022-08-19T11:52:28;40.40;35.40
12704;DHT22;6416;52.182;7.650;2022-08-19T11:54:54;40.90;34.10
12704;DHT22;6416;52.182;7.650;2022-08-19T11:57:19;41.30;33.70
12704;DHT22;6416;52.182;7.650;2022-08-19T11:59:50;41.70;33.10
12704;DHT22;6416;52.182;7.650;2022-08-19T12:02:16;41.90;31.80
12704;DHT22;6416;52.182;7.650;2022-08-19T12:04:41;41.90;31.40
12704;DHT22;6416;52.182;7.650;2022-08-19T12:07:07;41.80;30.80
12704;DHT22;6416;52.182;7.650;2022-08-19T12:09:32;41.70;30.80
12704;DHT22;6416;52.182;7.650;2022-08-19T12:11:58;41.50;30.70
12704;DHT22;6416;52.182;7.650;2022-08-19T12:14:23;41.60;31.10
12704;DHT22;6416;52.182;7.650;2022-08-19T12:16:49;41.80;31.90
12704;DHT22;6416;52.182;7.650;2022-08-19T12:19:14;42.00;32.30
12704;DHT22;6416;52.182;7.650;2022-08-19T12:21:40;42.30;32.00
12704;DHT22;6416;52.182;7.650;2022-08-19T12:24:06;42.40;30.90
12704;DHT22;6416;52.182;7.650;2022-08-19T12:26:32;42.50;30.20
12704;DHT22;6416;52.182;7.650;2022-08-19T12:28:58;42.50;30.10
12704;DHT22;6416;52.182;7.650;2022-08-19T12:31:23;42.60;30.30
12704;DHT22;6416;52.182;7.650;2022-08-19T12:33:49;42.70;30.70
12704;DHT22;6416;52.182;7.650;2022-08-19T12:36:15;42.90;30.70
12704;DHT22;6416;52.182;7.650;2022-08-19T12:38:41;43.00;30.30
12704;DHT22;6416;52.182;7.650;2022-08-19T12:41:10;43.20;30.00
12704;DHT22;6416;52.182;7.650;2022-08-19T12:43:36;43.50;29.80
12704;DHT22;6416;52.182;7.650;2022-08-19T12:46:03;43.60;29.70
12704;DHT22;6416;52.182;7.650;2022-08-19T12:48:28;43.60;29.40
12704;DHT22;6416;52.182;7.650;2022-08-19T12:50:54;43.70;29.00
12704;DHT22;6416;52.182;7.650;2022-08-19T12:53:19;43.70;29.00
12704;DHT22;6416;52.182;7.650;2022-08-19T12:55:45;43.80;29.00
12704;DHT22;6416;52.182;7.650;2022-08-19T12:58:12;43.90;28.50
12704;DHT22;6416;52.182;7.650;2022-08-19T13:00:38;44.00;28.30
12704;DHT22;6416;52.182;7.650;2022-08-19T13:03:04;44.10;28.20
12704;DHT22;6416;52.182;7.650;2022-08-19T13:05:31;44.20;27.70
12704;DHT22;6416;52.182;7.650;2022-08-19T13:07:58;44.20;27.80
12704;DHT22;6416;52.182;7.650;2022-08-19T13:10:26;44.20;27.70
12704;DHT22;6416;52.182;7.650;2022-08-19T13:12:52;44.20;27.60
12704;DHT22;6416;52.182;7.650;2022-08-19T13:15:19;44.20;28.20
12704;DHT22;6416;52.182;7.650;2022-08-19T13:17:45;44.20;27.60
12704;DHT22;6416;52.182;7.650;2022-08-19T13:20:11;44.20;27.50
12704;DHT22;6416;52.182;7.650;2022-08-19T13:22:37;44.10;27.20
12704;DHT22;6416;52.182;7.650;2022-08-19T13:25:04;44.10;26.70
12704;DHT22;6416;52.182;7.650;2022-08-19T13:27:30;43.90;26.40
12704;DHT22;6416;52.182;7.650;2022-08-19T13:29:55;43.60;25.50
12704;DHT22;6416;52.182;7.650;2022-08-19T13:32:21;43.30;25.50
12704;DHT22;6416;52.182;7.650;2022-08-19T13:34:46;42.80;25.20
12704;DHT22;6416;52.182;7.650;2022-08-19T13:37:12;42.40;25.20
12704;DHT22;6416;52.182;7.650;2022-08-19T13:39:37;41.90;25.60
12704;DHT22;6416;52.182;7.650;2022-08-19T13:42:03;41.40;25.60
12704;DHT22;6416;52.182;7.650;2022-08-19T13:44:29;41.00;26.10
12704;DHT22;6416;52.182;7.650;2022-08-19T13:47:04;40.60;26.60
12704;DHT22;6416;52.182;7.650;2022-08-19T13:49:30;40.30;27.00
12704;DHT22;6416;52.182;7.650;2022-08-19T13:51:56;40.00;27.40
12704;DHT22;6416;52.182;7.650;2022-08-19T13:54:22;39.70;27.70
12704;DHT22;6416;52.182;7.650;2022-08-19T13:56:48;39.50;28.00
12704;DHT22;6416;52.182;7.650;2022-08-19T13:59:13;39.30;28.20
12704;DHT22;6416;52.182;7.650;2022-08-19T14:01:39;39.10;28.40
12704;DHT22;6416;52.182;7.650;2022-08-19T14:04:06;38.90;28.50
12704;DHT22;6416;52.182;7.650;2022-08-19T14:06:32;38.80;28.60
12704;DHT22;6416;52.182;7.650;2022-08-19T14:08:58;38.60;28.60
12704;DHT22;6416;52.182;7.650;2022-08-19T14:11:23;38.40;28.80
12704;DHT22;6416;52.182;7.650;2022-08-19T14:13:49;38.30;29.00
12704;DHT22;6416;52.182;7.650;2022-08-19T14:16:15;38.10;29.10
12704;DHT22;6416;52.182;7.650;2022-08-19T14:18:41;38.00;29.40
12704;DHT22;6416;52.182;7.650;2022-08-19T14:21:07;37.90;30.00
12704;DHT22;6416;52.182;7.650;2022-08-19T14:23:34;37.80;29.70
12704;DHT22;6416;52.182;7.650;2022-08-19T14:26:08;37.70;29.60
12704;DHT22;6416;52.182;7.650;2022-08-19T14:28:33;37.60;29.70
12704;DHT22;6416;52.182;7.650;2022-08-19T14:30:59;37.50;29.90
12704;DHT22;6416;52.182;7.650;2022-08-19T14:33:24;37.30;29.90
12704;DHT22;6416;52.182;7.650;2022-08-19T14:35:50;37.20;30.00
12704;DHT22;6416;52.182;7.650;2022-08-19T14:38:18;37.10;30.30
12704;DHT22;6416;52.182;7.650;2022-08-19T14:40:44;37.00;30.30
12704;DHT22;6416;52.182;7.650;2022-08-19T14:43:10;36.90;30.50
12704;DHT22;6416;52.182;7.650;2022-08-19T14:45:37;36.80;30.70
12704;DHT22;6416;52.182;7.650;2022-08-19T14:48:04;36.70;31.00
12704;DHT22;6416;52.182;7.650;2022-08-19T14:50:30;36.60;31.20
12704;DHT22;6416;52.182;7.650;2022-08-19T14:53:00;36.50;31.20
12704;DHT22;6416;52.182;7.650;2022-08-19T14:55:27;36.40;31.50
12704;DHT22;6416;52.182;7.650;2022-08-19T14:57:53;36.40;31.30
12704;DHT22;6416;52.182;7.650;2022-08-19T15:00:18;36.20;31.50
12704;DHT22;6416;52.182;7.650;2022-08-19T15:02:44;36.10;31.40
12704;DHT22;6416;52.182;7.650;2022-08-19T15:05:09;36.10;31.70
12704;DHT22;6416;52.182;7.650;2022-08-19T15:07:36;36.00;31.90
12704;DHT22;6416;52.182;7.650;2022-08-19T15:10:02;35.90;32.00
12704;DHT22;6416;52.182;7.650;2022-08-19T15:12:28;35.80;32.10
12704;DHT22;6416;52.182;7.650;2022-08-19T15:14:53;35.70;32.20
12704;DHT22;6416;52.182;7.650;2022-08-19T15:17:19;35.60;32.20
12704;DHT22;6416;52.182;7.650;2022-08-19T15:19:44;35.50;32.50
12704;DHT22;6416;52.182;7.650;2022-08-19T15:22:11;35.40;32.60
12704;DHT22;6416;52.182;7.650;2022-08-19T15:24:36;35.30;32.70
12704;DHT22;6416;52.182;7.650;2022-08-19T15:27:02;35.30;32.80
12704;DHT22;6416;52.182;7.650;2022-08-19T15:29:28;35.20;32.90
12704;DHT22;6416;52.182;7.650;2022-08-19T15:31:54;35.10;33.00
12704;DHT22;6416;52.182;7.650;2022-08-19T15:34:19;35.10;33.10
12704;DHT22;6416;52.182;7.650;2022-08-19T15:36:45;35.00;33.20
12704;DHT22;6416;52.182;7.650;2022-08-19T15:39:10;34.90;33.20
12704;DHT22;6416;52.182;7.650;2022-08-19T15:41:36;34.90;33.40
12704;DHT22;6416;52.182;7.650;2022-08-19T15:44:08;34.80;33.50
12704;DHT22;6416;52.182;7.650;2022-08-19T15:46:36;34.80;33.70
12704;DHT22;6416;52.182;7.650;2022-08-19T15:49:02;34.70;33.70
12704;DHT22;6416;52.182;7.650;2022-08-19T15:51:29;34.60;33.70
12704;DHT22;6416;52.182;7.650;2022-08-19T15:53:55;34.60;33.90
12704;DHT22;6416;52.182;7.650;2022-08-19T15:56:21;34.50;34.00
12704;DHT22;6416;52.182;7.650;2022-08-19T15:58:47;34.40;34.00